Time;durP1;ratioP1;P1;durP2;ratioP2;P2;SDS_P1;SDS_P2;PMS_P1;PMS_P2;Temp;Humidity;BMP_temperature;BMP_pressure;BME280_temperature;BME280_humidity;BME280_pressure;Samples;Min_cycle;Max_cycle;Signal;HPM_P1;HPM_P2
2022/10/13 00:01:18;;;;;;;17.20;11.65;;;;;;;10.72;97.79;101853.47;5025074;28;20393;-71
2022/10/13 00:03:46;;;;;;;15.18;11.82;;;;;;;10.76;98.01;101851.19;5010131;28;20025;-72
2022/10/13 00:06:13;;;;;;;15.77;11.45;;;;;;;10.76;97.54;101845.69;5025098;28;20385;-69
2022/10/13 00:08:42;;;;;;;15.32;11.82;;;;;;;10.75;97.75;101844.84;5024833;28;20430;-73
2022/10/13 00:11:10;;;;;;;;;;;;;;;10.82;96.71;101844.84;5024919;28;20026;-71
2022/10/13 00:13:36;;;;;;;16.52;11.15;;;;;;;10.78;97.60;101835.31;5026792;28;20720;-70
2022/10/13 00:16:02;;;;;;;15.60;12.05;;;;;;;10.81;97.76;101833.00;5028130;28;20038;-74
2022/10/13 00:18:27;;;;;;;14.25;11.23;;;;;;;10.83;98.09;101832.78;5028171;28;20033;-73
2022/10/13 00:20:52;;;;;;;16.15;11.80;;;;;;;10.85;97.66;101827.94;5028257;28;20041;-72
2022/10/13 00:23:18;;;;;;;17.13;11.07;;;;;;;10.83;97.54;101822.63;5028687;28;20033;-68
2022/10/13 00:25:47;;;;;;;15.43;11.50;;;;;;;10.84;97.65;101826.22;5028333;28;20030;-74
2022/10/13 00:28:15;;;;;;;15.57;11.75;;;;;;;10.84;97.86;101824.31;5028369;28;20037;-70
2022/10/13 00:30:40;;;;;;;17.70;12.07;;;;;;;10.85;97.83;101822.44;5027058;28;20025;-68
2022/10/13 00:33:07;;;;;;;17.48;11.88;;;;;;;10.87;97.81;101826.66;5027763;28;20037;-73
2022/10/13 00:35:32;;;;;;;15.73;11.90;;;;;;;10.89;97.79;101827.28;5028226;28;20029;-69
2022/10/13 00:37:57;;;;;;;15.60;11.73;;;;;;;10.90;97.73;101831.75;5026396;28;20364;-70
2022/10/13 00:40:23;;;;;;;15.18;11.73;;;;;;;10.93;97.22;101824.13;5028350;28;20037;-75
2022/10/13 00:42:48;;;;;;;17.00;11.90;;;;;;;10.96;97.52;101823.72;5029206;28;20021;-66
2022/10/13 00:45:16;;;;;;;17.10;12.98;;;;;;;11.00;97.26;101819.47;5028789;28;20128;-71
2022/10/13 00:47:45;;;;;;;16.00;11.63;;;;;;;11.05;97.28;101823.31;5028125;28;20068;-73
2022/10/13 00:50:20;;;;;;;18.05;12.48;;;;;;;11.10;96.99;101825.41;5026420;28;20037;-68
2022/10/13 00:52:47;;;;;;;16.70;11.77;;;;;;;11.11;96.89;101824.38;5028190;28;20041;-70
2022/10/13 00:55:17;;;;;;;16.40;11.85;;;;;;;11.12;96.50;101820.56;5026532;28;20029;-74
2022/10/13 00:57:45;;;;;;;15.13;12.18;;;;;;;11.13;96.24;101814.00;5026029;28;20387;-73
2022/10/13 01:00:11;;;;;;;15.73;12.02;;;;;;;11.14;96.31;101816.53;5028735;28;20051;-73
2022/10/13 01:02:37;;;;;;;16.30;11.60;;;;;;;11.12;96.13;101810.41;5027474;28;20379;-71
2022/10/13 01:05:12;;;;;;;15.35;11.98;;;;;;;11.14;96.48;101821.19;5028053;28;20022;-67
2022/10/13 01:07:37;;;;;;;16.30;11.07;;;;;;;11.18;95.81;101823.31;4978386;28;20085;-71
2022/10/13 01:10:03;;;;;;;17.27;12.63;;;;;;;11.18;96.07;101819.72;4984104;28;20066;-74
2022/10/13 01:12:51;;;;;;;17.17;11.73;;;;;;;11.20;95.88;101814.84;4989014;28;20038;-72
2022/10/13 01:15:51;;;;;;;17.55;12.32;;;;;;;11.21;95.55;101816.56;4989243;28;20030;-72
2022/10/13 01:18:36;;;;;;;16.48;12.88;;;;;;;11.24;95.45;101813.38;4977689;28;20108;-71
2022/10/13 01:21:08;;;;;;;17.02;12.07;;;;;;;11.24;95.37;101815.28;4987023;28;20416;-70
2022/10/13 01:24:07;;;;;;;17.20;12.25;;;;;;;11.30;95.14;101820.78;4986426;28;20057;-66
2022/10/13 01:27:09;;;;;;;18.00;11.60;;;;;;;11.30;94.99;101818.03;4986096;28;20038;-67
2022/10/13 01:30:02;;;;;;;17.67;12.35;;;;;;;11.31;94.76;101822.47;4987530;28;20120;-73
2022/10/13 01:32:52;;;;;;;18.73;12.25;;;;;;;11.33;94.54;101828.59;4986907;28;20041;-72
2022/10/13 01:35:37;;;;;;;18.35;12.73;;;;;;;11.32;94.60;101813.16;4986162;28;20475;-69
2022/10/13 01:38:27;;;;;;;21.05;12.30;;;;;;;11.32;94.48;101813.16;4987882;28;20381;-71
2022/10/13 01:40:52;;;;;;;20.70;11.90;;;;;;;11.33;94.38;101809.34;4987004;28;20113;-70
2022/10/13 01:43:23;;;;;;;20.93;12.30;;;;;;;11.36;94.76;101802.59;4988473;28;20439;-72
2022/10/13 01:46:06;;;;;;;20.85;12.98;;;;;;;11.39;94.38;101813.16;4987923;28;20401;-69
2022/10/13 01:48:33;;;;;;;19.67;12.77;;;;;;;11.38;94.59;101816.97;4985952;28;20093;-66
2022/10/13 01:50:59;;;;;;;19.65;13.13;;;;;;;11.39;94.57;101808.50;4986074;28;20027;-65
2022/10/13 01:53:26;;;;;;;19.00;12.77;;;;;;;11.42;94.61;101805.34;4985342;28;20038;-70
2022/10/13 01:55:57;;;;;;;19.75;13.32;;;;;;;11.44;94.72;101800.44;4986388;28;20027;-73
2022/10/13 01:58:27;;;;;;;19.73;12.50;;;;;;;11.47;94.56;101798.34;4987990;28;20045;-70
2022/10/13 02:01:13;;;;;;;21.63;13.15;;;;;;;11.49;94.92;101796.22;4987086;28;20030;-70
2022/10/13 02:04:08;;;;;;;19.75;13.52;;;;;;;11.48;94.55;101792.63;4987571;28;20041;-69
2022/10/13 02:06:42;;;;;;;20.23;13.10;;;;;;;11.47;95.14;101792.84;4986948;28;20050;-73
2022/10/13 02:09:26;;;;;;;19.90;13.35;;;;;;;11.44;94.77;101775.69;4986934;28;20041;-68
2022/10/13 02:11:57;;;;;;;25.48;13.68;;;;;;;11.44;95.17;101777.59;4987587;28;20026;-67
2022/10/13 02:14:32;;;;;;;21.10;13.68;;;;;;;11.43;95.18;101789.69;4987521;28;20062;-68
2022/10/13 02:17:01;;;;;;;24.73;13.68;;;;;;;11.41;95.26;101778.91;4986731;28;20034;-72
2022/10/13 02:19:27;;;;;;;20.48;13.48;;;;;;;11.43;95.47;101782.25;4986722;28;20034;-73
2022/10/13 02:21:53;;;;;;;23.10;14.57;;;;;;;11.43;95.15;101775.91;4986713;28;20473;-70
2022/10/13 02:24:18;;;;;;;26.20;14.30;;;;;;;11.40;95.64;101768.97;4986869;28;20061;-65
2022/10/13 02:26:44;;;;;;;20.30;13.15;;;;;;;11.41;95.20;101767.88;4987452;28;20065;-72
2022/10/13 02:29:12;;;;;;;22.77;13.95;;;;;;;11.43;95.87;101763.00;4986515;28;20369;-72
2022/10/13 02:31:39;;;;;;;27.50;14.88;;;;;;;11.43;95.46;101768.50;4987340;28;20042;-66
2022/10/13 02:34:05;;;;;;;22.77;14.07;;;;;;;11.42;95.73;101764.06;4986114;28;20031;-73
2022/10/13 02:36:31;;;;;;;23.00;15.10;;;;;;;11.41;95.75;101767.88;4986919;28;20026;-71
2022/10/13 02:38:56;;;;;;;21.70;14.45;;;;;;;11.40;95.81;101763.47;4986393;28;20034;-73
2022/10/13 02:41:21;;;;;;;27.00;14.68;;;;;;;11.40;95.73;101757.09;4982992;28;20037;-65
2022/10/13 02:43:47;;;;;;;25.80;15.43;;;;;;;11.39;96.09;101758.16;4986346;28;20113;-71
2022/10/13 02:46:12;;;;;;;23.27;14.65;;;;;;;11.40;95.87;101759.84;4987597;28;20038;-73
2022/10/13 02:48:37;;;;;;;25.05;14.90;;;;;;;11.39;96.30;101756.25;4986003;28;20030;-72
2022/10/13 02:51:02;;;;;;;23.27;14.40;;;;;;;11.41;96.07;101767.88;4986119;28;20053;-68
2022/10/13 02:53:28;;;;;;;20.85;14.55;;;;;;;11.41;96.12;101756.03;4986535;28;20023;-73
2022/10/13 02:55:53;;;;;;;26.25;15.23;;;;;;;11.43;95.82;101756.66;4986886;28;20627;-72
2022/10/13 02:58:18;;;;;;;25.95;16.20;;;;;;;11.43;96.01;101749.25;4986824;28;20026;-65
2022/10/13 03:00:43;;;;;;;25.42;15.57;;;;;;;11.44;96.08;101742.69;4986777;28;20372;-73
2022/10/13 03:03:10;;;;;;;22.58;14.70;;;;;;;11.45;96.39;101743.53;4985381;28;20026;-70
2022/10/13 03:05:35;;;;;;;22.98;15.05;;;;;;;11.46;96.38;101738.91;4986942;28;20050;-72
2022/10/13 03:08:01;;;;;;;23.90;15.18;;;;;;;11.45;96.09;101746.28;4986417;28;20038;-73
2022/10/13 03:10:26;;;;;;;25.35;14.65;;;;;;;11.44;96.36;101739.94;4985967;28;20033;-71
2022/10/13 03:12:53;;;;;;;24.05;14.75;;;;;;;11.46;96.62;101741.66;4985474;28;20073;-73
2022/10/13 03:15:19;;;;;;;24.25;14.68;;;;;;;11.46;96.76;101739.75;4986274;28;20026;-73
2022/10/13 03:17:44;;;;;;;25.33;14.90;;;;;;;11.46;96.09;101737.00;4986170;28;20388;-72
2022/10/13 03:20:09;;;;;;;29.08;15.05;;;;;;;11.47;96.13;101735.09;4986189;28;20042;-74
2022/10/13 03:22:34;;;;;;;27.05;15.15;;;;;;;11.46;96.52;101730.66;4984728;28;20444;-66
2022/10/13 03:25:00;;;;;;;25.60;15.63;;;;;;;11.46;96.54;101736.16;4986114;28;20046;-68
2022/10/13 03:27:25;;;;;;;23.48;14.68;;;;;;;11.47;96.47;101735.94;4985758;28;20022;-73
2022/10/13 03:29:50;;;;;;;25.98;15.43;;;;;;;11.47;96.24;101733.19;4984612;28;20030;-66
2022/10/13 03:32:15;;;;;;;19.80;14.43;;;;;;;11.49;95.89;101735.69;4986620;28;20034;-72
2022/10/13 03:34:41;;;;;;;22.55;14.52;;;;;;;11.49;96.15;101731.03;4985706;28;20509;-73
2022/10/13 03:37:06;;;;;;;26.95;15.63;;;;;;;11.51;96.25;101728.94;4984992;28;20093;-66
2022/10/13 03:39:32;;;;;;;23.58;13.82;;;;;;;11.54;96.18;101724.91;4986389;28;21760;-73
2022/10/13 03:41:57;;;;;;;26.52;15.63;;;;;;;11.54;96.26;101719.41;4986117;28;20180;-72
2022/10/13 03:44:22;;;;;;;22.85;14.52;;;;;;;11.53;95.99;101720.47;4986191;28;20469;-68
2022/10/13 03:46:47;;;;;;;22.05;13.25;;;;;;;11.54;96.32;101722.16;4986533;28;20034;-73
2022/10/13 03:49:13;;;;;;;21.35;13.98;;;;;;;11.54;96.36;101717.47;4987062;28;20109;-73
2022/10/13 03:51:38;;;;;;;25.67;14.05;;;;;;;11.57;95.91;101716.22;4990370;28;20022;-72
2022/10/13 03:54:03;;;;;;;22.42;13.77;;;;;;;11.59;95.83;101705.84;4986018;28;20098;-69
2022/10/13 03:56:29;;;;;;;23.13;14.07;;;;;;;11.61;95.86;101706.47;4989357;28;20113;-67
2022/10/13 03:58:57;;;;;;;20.40;13.73;;;;;;;11.62;95.67;101697.16;4989804;28;20369;-68
2022/10/13 04:01:25;;;;;;;20.98;14.07;;;;;;;11.61;95.78;101703.72;4988877;28;20145;-73
2022/10/13 04:03:54;;;;;;;20.73;13.70;;;;;;;11.62;95.92;101692.50;4988136;28;20023;-71
2022/10/13 04:06:20;;;;;;;20.27;13.93;;;;;;;11.62;95.54;101692.50;4989131;28;20042;-72
2022/10/13 04:08:46;;;;;;;22.77;13.60;;;;;;;11.63;95.53;101701.59;4989833;28;20121;-69
2022/10/13 04:11:13;;;;;;;22.35;13.50;;;;;;;11.66;95.31;101690.16;4989864;28;20113;-73
2022/10/13 04:13:40;;;;;;;22.30;13.50;;;;;;;11.65;95.64;101691.19;4988264;28;20626;-73
2022/10/13 04:16:10;;;;;;;20.98;13.43;;;;;;;11.67;95.71;101689.94;4988839;28;20077;-71
2022/10/13 04:18:36;;;;;;;20.63;13.20;;;;;;;11.67;95.68;101692.69;4989283;28;20045;-72
2022/10/13 04:21:05;;;;;;;24.48;13.77;;;;;;;11.67;95.29;101689.94;4988568;28;20018;-71
2022/10/13 04:23:31;;;;;;;19.80;13.88;;;;;;;11.67;95.84;101686.34;4976918;28;20740;-72
2022/10/13 04:25:56;;;;;;;20.25;13.45;;;;;;;11.68;95.85;101690.78;4983977;28;20117;-73
2022/10/13 04:28:21;;;;;;;18.50;12.73;;;;;;;11.67;95.81;101686.34;4989299;28;20052;-69
2022/10/13 04:30:47;;;;;;;20.58;13.32;;;;;;;11.66;95.91;101681.91;4989429;28;20053;-72
2022/10/13 04:33:12;;;;;;;19.50;13.23;;;;;;;11.66;96.19;101681.91;4988222;28;20033;-72
2022/10/13 04:35:41;;;;;;;21.27;13.30;;;;;;;11.66;96.13;101681.91;4987590;28;20048;-69
2022/10/13 04:38:06;;;;;;;17.50;13.05;;;;;;;11.66;96.09;101670.91;4988407;28;20481;-72
2022/10/13 04:40:33;;;;;;;22.25;13.95;;;;;;;11.65;96.51;101663.69;4988880;28;20072;-65
2022/10/13 04:42:58;;;;;;;28.17;13.15;;;;;;;11.65;96.50;101659.03;4988496;28;20497;-69
2022/10/13 04:45:24;;;;;;;21.27;13.40;;;;;;;11.63;96.54;101669.41;4988241;28;20100;-66
2022/10/13 04:47:49;;;;;;;21.73;14.40;;;;;;;11.62;96.58;101680.66;4987490;28;20026;-72
2022/10/13 04:50:15;;;;;;;21.48;12.68;;;;;;;11.60;96.98;101683.59;4989081;28;20058;-69
2022/10/13 04:52:40;;;;;;;20.40;13.57;;;;;;;11.61;96.94;101687.22;4989435;28;20061;-68
2022/10/13 04:55:06;;;;;;;24.20;12.52;;;;;;;11.58;96.99;101674.72;4987133;28;20026;-72
2022/10/13 04:57:31;;;;;;;19.88;13.40;;;;;;;11.58;96.74;101671.13;4987378;28;20468;-69
2022/10/13 04:59:56;;;;;;;20.02;13.57;;;;;;;11.58;97.07;101682.13;4987094;28;20037;-68
2022/10/13 05:02:22;;;;;;;19.30;12.43;;;;;;;11.58;97.44;101682.97;4985959;28;20025;-73
2022/10/13 05:04:47;;;;;;;20.35;13.70;;;;;;;11.57;97.33;101684.06;4988425;28;20038;-70
2022/10/13 05:07:12;;;;;;;20.05;13.40;;;;;;;11.55;97.34;101683.41;4985907;28;20715;-70
2022/10/13 05:09:38;;;;;;;20.60;12.52;;;;;;;11.55;97.21;101674.31;4986442;28;20389;-70
2022/10/13 05:12:03;;;;;;;23.92;12.95;;;;;;;11.53;97.43;101666.28;4987542;28;20039;-74
2022/10/13 05:14:29;;;;;;;21.25;13.48;;;;;;;11.54;97.62;101669.88;4987389;28;20117;-69
2022/10/13 05:16:55;;;;;;;19.65;13.98;;;;;;;11.53;97.67;101651.69;4985688;28;20045;-71
2022/10/13 05:19:20;;;;;;;16.70;12.73;;;;;;;11.54;97.36;101648.72;4988644;28;20026;-68
2022/10/13 05:21:45;;;;;;;23.70;13.73;;;;;;;11.52;97.58;101666.50;4986839;28;20393;-72
2022/10/13 05:24:12;;;;;;;20.15;13.07;;;;;;;11.52;97.69;101664.59;4988362;28;20037;-68
2022/10/13 05:26:38;;;;;;;20.25;12.75;;;;;;;11.49;98.14;101677.94;4988301;28;20049;-67
2022/10/13 05:29:04;;;;;;;20.13;12.75;;;;;;;11.50;97.87;101669.44;4987508;28;20102;-69
2022/10/13 05:31:31;;;;;;;20.23;13.85;;;;;;;11.51;97.88;101678.59;4986554;28;20026;-71
2022/10/13 05:33:57;;;;;;;20.33;13.00;;;;;;;11.52;97.81;101683.00;4986866;28;20023;-69
2022/10/13 05:36:31;;;;;;;18.88;13.07;;;;;;;11.54;98.21;101689.13;4987182;28;20050;-72
2022/10/13 05:39:03;;;;;;;19.50;12.60;;;;;;;11.52;97.81;101683.00;4987669;28;20026;-69
2022/10/13 05:41:29;;;;;;;21.40;13.50;;;;;;;11.53;97.72;101681.94;4988071;28;20030;-70
2022/10/13 05:44:06;;;;;;;20.90;12.63;;;;;;;11.54;97.87;101683.63;4987510;28;20504;-72
2022/10/13 05:46:31;;;;;;;21.50;13.98;;;;;;;11.54;97.84;101683.63;4985732;28;20030;-70
2022/10/13 05:48:57;;;;;;;22.02;14.25;;;;;;;11.52;97.78;101683.84;4986025;28;20034;-72
2022/10/13 05:51:35;;;;;;;21.65;13.70;;;;;;;11.54;97.85;101678.13;4988026;28;20034;-72
2022/10/13 05:54:19;;;;;;;20.15;14.38;;;;;;;11.52;97.80;101666.50;4986427;28;20026;-69
2022/10/13 05:56:53;;;;;;;20.35;13.10;;;;;;;11.51;98.22;101671.16;4988097;28;20035;-69
2022/10/13 05:59:21;;;;;;;22.63;13.90;;;;;;;11.50;97.83;101672.19;4986326;28;20035;-71
2022/10/13 06:01:46;;;;;;;23.73;15.10;;;;;;;11.49;97.59;101665.03;4984740;28;20405;-72
2022/10/13 06:04:23;;;;;;;23.75;14.52;;;;;;;11.49;98.24;101670.53;4987771;28;20045;-73
2022/10/13 06:06:48;;;;;;;21.13;14.00;;;;;;;11.50;98.24;101660.34;4987168;28;20100;-65
2022/10/13 06:09:14;;;;;;;21.30;13.98;;;;;;;11.51;97.83;101662.06;4987683;28;20022;-67
2022/10/13 06:11:39;;;;;;;22.05;14.68;;;;;;;11.51;97.74;101659.31;4986813;28;20041;-73
2022/10/13 06:14:05;;;;;;;22.02;13.95;;;;;;;11.50;98.22;101661.19;4984536;28;20034;-66
2022/10/13 06:16:30;;;;;;;22.85;14.90;;;;;;;11.51;98.51;101668.41;4973588;28;20061;-73
2022/10/13 06:18:55;;;;;;;22.27;15.45;;;;;;;11.52;98.02;101669.25;4986901;28;20027;-73
2022/10/13 06:21:21;;;;;;;22.30;13.55;;;;;;;11.52;97.90;101655.50;4984946;28;20215;-66
2022/10/13 06:23:46;;;;;;;23.42;14.57;;;;;;;11.54;97.76;101645.13;4987631;28;20035;-72
2022/10/13 06:26:11;;;;;;;18.63;13.60;;;;;;;11.54;98.05;101656.97;4985085;28;20037;-71
2022/10/13 06:28:37;;;;;;;24.27;15.70;;;;;;;11.56;97.76;101651.25;4985506;28;20045;-73
2022/10/13 06:31:05;;;;;;;23.00;15.15;;;;;;;11.57;97.45;101655.69;4985518;28;20026;-72
2022/10/13 06:33:30;;;;;;;23.40;15.82;;;;;;;11.60;97.57;101658.00;4984977;28;20034;-73
2022/10/13 06:35:59;;;;;;;23.42;14.88;;;;;;;11.62;97.26;101661.38;4985875;28;20030;-72
2022/10/13 06:38:24;;;;;;;25.27;16.05;;;;;;;11.63;97.51;101652.91;5001351;28;20030;-72
2022/10/13 06:40:49;;;;;;;26.83;15.80;;;;;;;11.64;97.74;101649.09;4985569;28;20044;-73
2022/10/13 06:43:15;;;;;;;28.38;15.63;;;;;;;11.66;97.46;101643.38;4985461;28;20034;-72
2022/10/13 06:45:40;;;;;;;23.88;15.13;;;;;;;11.70;97.51;101652.88;4985582;28;20058;-71
2022/10/13 06:48:05;;;;;;;27.92;16.10;;;;;;;11.73;97.18;101662.63;4984645;28;20022;-71
2022/10/13 06:50:31;;;;;;;23.67;14.90;;;;;;;11.75;96.98;101646.72;4986799;28;20488;-74
2022/10/13 06:52:56;;;;;;;22.85;15.15;;;;;;;11.76;96.68;101648.41;4986692;28;20037;-70
2022/10/13 06:55:22;;;;;;;27.52;15.27;;;;;;;11.77;97.09;101650.13;4987111;28;20030;-71
2022/10/13 06:57:47;;;;;;;27.35;16.13;;;;;;;11.79;96.68;101642.47;4986624;28;20050;-73
2022/10/13 07:00:13;;;;;;;26.30;15.75;;;;;;;11.82;96.47;101642.06;4985533;28;20041;-73
2022/10/13 07:02:38;;;;;;;29.75;16.55;;;;;;;11.82;96.50;101645.66;4985174;28;20132;-71
2022/10/13 07:05:04;;;;;;;26.95;16.70;;;;;;;11.83;96.60;101649.25;4986109;28;20026;-75
2022/10/13 07:07:29;;;;;;;27.05;15.77;;;;;;;11.84;96.47;101656.44;4986585;28;20054;-74
2022/10/13 07:09:54;;;;;;;27.20;15.95;;;;;;;11.86;96.31;101654.31;4986821;28;20359;-70
2022/10/13 07:12:20;;;;;;;28.48;17.50;;;;;;;11.87;96.32;101643.09;4985917;28;20057;-73
2022/10/13 07:14:46;;;;;;;27.90;17.50;;;;;;;11.89;96.45;101651.97;4970285;28;20034;-74
2022/10/13 07:17:11;;;;;;;30.50;16.50;;;;;;;11.90;95.57;101648.16;4970000;28;20500;-68
2022/10/13 07:19:36;;;;;;;29.17;16.92;;;;;;;11.91;96.08;101646.22;4983075;28;20030;-73
2022/10/13 07:22:02;;;;;;;27.55;17.13;;;;;;;11.93;96.42;101658.72;4980756;28;20097;-68
2022/10/13 07:24:27;;;;;;;32.15;17.52;;;;;;;11.97;96.40;101655.56;4978405;28;20043;-67
2022/10/13 07:26:52;;;;;;;27.38;16.10;;;;;;;11.99;95.93;101648.75;4988460;28;20041;-68
2022/10/13 07:29:18;;;;;;;28.13;17.55;;;;;;;12.03;95.73;101651.91;4991292;28;20065;-74
2022/10/13 07:31:43;;;;;;;27.27;16.83;;;;;;;12.07;95.57;101666.94;4990010;28;20027;-69
2022/10/13 07:34:09;;;;;;;29.90;17.98;;;;;;;12.06;95.13;101662.47;4978689;28;20073;-68
2022/10/13 07:36:35;;;;;;;31.80;17.25;;;;;;;12.07;95.74;101659.50;4986076;28;20050;-75
2022/10/13 07:39:02;;;;;;;34.90;18.67;;;;;;;12.08;95.53;101661.19;4989678;28;20508;-72
2022/10/13 07:41:27;;;;;;;31.42;17.15;;;;;;;12.08;95.26;101663.09;4989310;28;20030;-67
2022/10/13 07:43:54;;;;;;;32.15;18.30;;;;;;;12.07;95.76;101645.75;4987097;28;20034;-74
2022/10/13 07:46:20;;;;;;;129.82;25.95;;;;;;;12.09;95.89;101657.38;4986518;28;20030;-70
2022/10/13 07:48:45;;;;;;;37.53;18.67;;;;;;;12.11;95.50;101648.88;4986491;28;20035;-75
2022/10/13 07:51:12;;;;;;;34.42;19.00;;;;;;;12.14;95.15;101656.72;4989768;28;20186;-75
2022/10/13 07:53:38;;;;;;;51.72;20.85;;;;;;;12.17;95.14;101650.78;4988938;28;20035;-68
2022/10/13 07:56:06;;;;;;;39.20;19.75;;;;;;;12.24;94.92;101651.56;4985057;28;20034;-64
2022/10/13 07:58:31;;;;;;;;;;;;;;;12.34;94.30;101651.91;4987927;28;20031;-75
2022/10/13 08:00:58;;;;;;;37.15;18.60;;;;;;;12.37;94.56;101656.97;4989057;28;19943;-74
2022/10/13 08:03:24;;;;;;;36.13;18.67;;;;;;;12.42;94.17;101654.41;4983056;28;20130;-70
2022/10/13 08:05:50;;;;;;;43.63;20.88;;;;;;;12.50;94.86;101657.94;4988008;28;20050;-69
2022/10/13 08:08:15;;;;;;;37.50;19.67;;;;;;;12.53;93.79;101658.34;4986463;28;20049;-74
2022/10/13 08:10:40;;;;;;;40.22;21.17;;;;;;;12.58;93.70;101658.50;4987790;28;20080;-70
2022/10/13 08:13:05;;;;;;;63.83;23.77;;;;;;;12.62;93.03;101653.38;4988602;28;20520;-71
2022/10/13 08:15:31;;;;;;;54.58;22.92;;;;;;;12.70;92.55;101650.34;4986457;28;20030;-69
2022/10/13 08:17:56;;;;;;;62.55;23.30;;;;;;;12.74;92.58;101651.59;5003614;28;20045;-71
2022/10/13 08:20:21;;;;;;;41.95;22.55;;;;;;;12.79;91.90;101643.50;4976806;28;20043;-69
2022/10/13 08:22:46;;;;;;;40.17;22.02;;;;;;;12.83;91.65;101635.63;4986806;28;20389;-66
2022/10/13 08:25:12;;;;;;;43.38;22.67;;;;;;;12.86;91.59;101644.25;4988279;28;20106;-71
2022/10/13 08:27:37;;;;;;;157.15;34.53;;;;;;;12.91;91.82;101644.44;4988758;28;20041;-71
2022/10/13 08:30:03;;;;;;;40.60;22.23;;;;;;;12.95;91.28;101648.44;4986694;28;20052;-66
2022/10/13 08:32:28;;;;;;;47.33;23.33;;;;;;;12.99;91.01;101633.13;4987622;28;20038;-72
2022/10/13 08:34:54;;;;;;;39.22;22.70;;;;;;;12.99;90.38;101638.63;4983848;28;21080;-69
2022/10/13 08:37:20;;;;;;;56.97;24.70;;;;;;;13.02;90.56;101633.72;4985170;28;20042;-71
2022/10/13 08:39:46;;;;;;;52.50;24.83;;;;;;;13.04;91.01;101634.34;4987561;28;20113;-72
2022/10/13 08:42:20;;;;;;;49.10;23.58;;;;;;;13.11;90.62;101635.13;4984487;28;20480;-71
2022/10/13 08:44:54;;;;;;;40.10;22.42;;;;;;;13.13;90.18;101635.75;4981115;28;20030;-72
2022/10/13 08:47:26;;;;;;;40.50;22.40;;;;;;;13.21;89.45;101627.16;4986077;28;20117;-73
2022/10/13 08:49:54;;;;;;;40.50;23.60;;;;;;;13.25;89.49;101628.41;4988520;28;20038;-72
2022/10/13 08:52:23;;;;;;;42.80;22.95;;;;;;;13.32;88.86;101631.94;4987302;28;20027;-73
2022/10/13 08:54:50;;;;;;;45.90;23.55;;;;;;;13.38;88.76;101628.28;4986809;28;20026;-67
2022/10/13 08:57:16;;;;;;;42.90;22.73;;;;;;;13.42;88.27;101631.41;4987139;28;20080;-70
2022/10/13 08:59:41;;;;;;;44.60;22.48;;;;;;;13.42;88.70;101634.16;4986461;28;20045;-69
2022/10/13 09:02:28;;;;;;;38.70;22.85;;;;;;;13.42;88.24;101635.00;4987680;28;20031;-73
2022/10/13 09:04:57;;;;;;;45.35;22.08;;;;;;;13.40;88.08;101637.16;4986927;28;20033;-72
2022/10/13 09:07:30;;;;;;;42.47;23.17;;;;;;;13.41;88.59;101630.56;4986581;28;20061;-72
2022/10/13 09:09:55;;;;;;;46.03;23.65;;;;;;;13.41;88.19;101625.03;4988665;28;20109;-72
2022/10/13 09:12:25;;;;;;;43.63;22.70;;;;;;;13.39;88.49;101627.19;4989151;28;20526;-72
2022/10/13 09:15:07;;;;;;;39.25;22.55;;;;;;;13.41;89.48;101626.97;4989134;28;20053;-72
2022/10/13 09:17:33;;;;;;;43.92;22.98;;;;;;;13.36;88.77;101627.66;4987889;28;20105;-70
2022/10/13 09:20:17;;;;;;;48.15;23.05;;;;;;;13.35;88.86;101625.13;4987476;28;20034;-64
2022/10/13 09:22:44;;;;;;;40.25;22.90;;;;;;;13.28;88.68;101618.81;4987927;28;20031;-71
2022/10/13 09:25:21;;;;;;;43.65;21.75;;;;;;;13.26;89.27;101623.75;4983224;28;20034;-70
2022/10/13 09:27:50;;;;;;;36.30;21.17;;;;;;;13.22;89.50;101618.66;4984580;28;20046;-68
2022/10/13 09:30:39;;;;;;;45.67;21.83;;;;;;;13.23;89.58;101617.63;4987046;28;20056;-67
2022/10/13 09:33:08;;;;;;;48.17;23.25;;;;;;;13.19;89.38;101616.34;4976238;28;20054;-71
2022/10/13 09:35:40;;;;;;;;;;;;;;;13.26;89.71;101623.75;4986044;28;20441;-68
2022/10/13 09:38:18;;;;;;;43.28;21.70;;;;;;;13.29;89.68;101617.78;4986932;28;19917;-72
2022/10/13 09:40:55;;;;;;;;;;;;;;;13.37;88.88;101628.50;4987347;28;20488;-72
2022/10/13 09:43:29;;;;;;;42.87;22.13;;;;;;;13.40;89.66;101623.38;4987733;28;19925;-72
2022/10/13 09:45:56;;;;;;;38.08;21.80;;;;;;;13.46;88.89;101616.06;4984323;28;20038;-72
2022/10/13 09:48:26;;;;;;;48.95;21.48;;;;;;;13.47;88.60;101615.00;4984833;28;20034;-68
2022/10/13 09:50:54;;;;;;;42.95;22.63;;;;;;;13.52;88.60;101606.88;4986585;28;20377;-69
2022/10/13 09:53:30;;;;;;;;;;;;;;;13.60;88.63;101614.84;4985101;28;20084;-69
2022/10/13 09:56:14;;;;;;;44.28;22.38;;;;;;;13.59;88.25;101613.16;4986738;28;20475;-69
2022/10/13 09:59:16;;;;;;;46.33;23.08;;;;;;;13.58;88.08;101621.66;4988380;28;20085;-69
2022/10/13 10:01:45;;;;;;;40.50;22.55;;;;;;;13.48;88.65;101614.78;4986065;28;20445;-69
2022/10/13 10:04:22;;;;;;;47.20;22.83;;;;;;;13.47;88.81;101615.84;4986414;28;20030;-68
2022/10/13 10:06:47;;;;;;;47.15;23.45;;;;;;;13.43;88.42;101617.41;4986690;28;20432;-69
2022/10/13 10:09:18;;;;;;;45.85;24.10;;;;;;;13.36;89.20;101607.50;4986768;28;20109;-69
2022/10/13 10:11:46;;;;;;;46.25;23.42;;;;;;;13.31;89.32;101610.09;4986936;28;20496;-69
2022/10/13 10:14:31;;;;;;;49.10;25.27;;;;;;;13.29;90.06;101607.59;4985668;28;20045;-69
2022/10/13 10:17:08;;;;;;;42.60;23.02;;;;;;;13.28;89.42;101607.78;4985962;28;20201;-69
2022/10/13 10:19:53;;;;;;;41.53;22.40;;;;;;;13.29;90.04;101604.81;4985107;28;20038;-69
2022/10/13 10:22:37;;;;;;;45.97;24.40;;;;;;;13.30;91.43;101605.66;4974246;28;20088;-70
2022/10/13 10:25:35;;;;;;;42.78;23.08;;;;;;;13.28;91.74;101603.16;4986352;28;20030;-69
2022/10/13 10:28:25;;;;;;;51.30;25.20;;;;;;;13.23;92.07;101601.06;4987485;28;20409;-69
2022/10/13 10:31:12;;;;;;;46.00;25.27;;;;;;;13.18;92.49;101605.56;4982936;28;20034;-70
2022/10/13 10:33:46;;;;;;;49.13;25.30;;;;;;;13.15;93.92;101603.25;4985831;28;20404;-69
2022/10/13 10:36:21;;;;;;;48.47;24.77;;;;;;;13.09;95.15;101605.03;4984151;28;20489;-70
2022/10/13 10:39:22;;;;;;;46.58;26.02;;;;;;;13.07;94.63;101611.81;4987824;28;20030;-70
2022/10/13 10:42:19;;;;;;;47.97;25.08;;;;;;;13.02;95.02;101604.22;4986167;28;20040;-70
2022/10/13 10:44:47;;;;;;;54.13;26.60;;;;;;;12.96;97.03;101594.13;4998137;28;20432;-69
2022/10/13 10:47:18;;;;;;;;;;;;;;;13.02;95.09;101595.94;4984724;28;20118;-69
2022/10/13 10:49:44;;;;;;;55.05;26.48;;;;;;;12.89;97.67;101596.13;4984981;28;19972;-69
2022/10/13 10:52:21;;;;;;;47.13;26.27;;;;;;;12.86;97.32;101599.31;4986905;28;20092;-69
2022/10/13 10:54:55;;;;;;;47.33;27.50;;;;;;;12.85;98.05;101598.47;4987795;28;20030;-69
2022/10/13 10:57:34;;;;;;;52.55;28.00;;;;;;;12.88;98.70;101602.69;4987154;28;20065;-70
2022/10/13 11:00:12;;;;;;;50.30;26.35;;;;;;;12.94;98.24;101597.13;4987049;28;20125;-69
2022/10/13 11:02:53;;;;;;;53.70;27.92;;;;;;;12.99;97.75;101591.75;4985509;28;20046;-69
2022/10/13 11:05:18;;;;;;;54.85;29.60;;;;;;;13.03;98.61;101594.03;4985878;28;20362;-70
2022/10/13 11:07:44;;;;;;;56.45;27.33;;;;;;;13.04;98.20;101582.81;4986436;28;20051;-70
2022/10/13 11:10:12;;;;;;;51.92;29.35;;;;;;;13.07;98.01;101587.84;4986689;28;20027;-70
2022/10/13 11:12:49;;;;;;;55.22;28.05;;;;;;;13.10;98.25;101586.56;4983274;28;20050;-71
2022/10/13 11:15:22;;;;;;;55.80;27.73;;;;;;;13.03;97.18;101578.38;4987128;28;20037;-70
2022/10/13 11:17:47;;;;;;;55.25;27.67;;;;;;;13.01;98.36;101572.22;4986199;28;20034;-70
2022/10/13 11:20:16;;;;;;;52.13;28.63;;;;;;;12.98;98.83;101570.78;4986071;28;20084;-70
2022/10/13 11:23:02;;;;;;;56.28;28.65;;;;;;;12.99;99.85;101568.84;4987110;28;20072;-71